Jimmy Lake, Canada
Current Conditions -  °F | °C
As of 2:00 AM on Monday 26 Jan 2015 (Local Time) from CWHN Reporting Station
Clear Clear  
Wind Chill:   Ceiling: Unl
Heat Index:   Visibility: 9mi
Dew Point: -4°   Wind: 3mph
Humidity: 65%   Direction: 240°WSW
Pressure: 29.74"   Gusts: NA
Location:  54.9°N, 109.97°W
Report Text: CWHN 260800Z AUTO 24003KT 9SM CLR 02/M04 A2974 RMK SLP095
Loading
Personal Weather Stations






























Interactive Weather Map New forecast layout! Learn more

10-Day Weather Forecast

Advertisements
Track Severe Weather on mobile